Spearville, Kansas
Current Conditions -  °F | °C
As of 4:52 PM on Sunday 21 Dec 2014 (Local Time) from KDDC Reporting Station
Few Clouds Few Clouds  
Wind Chill: 35°   Ceiling: Unl
Heat Index: 43°   Visibility: 9mi
Dew Point: 36°   Wind: 17mph
Humidity: 76%   Direction: 170°S
Pressure: 29.62"   Gusts: NA
Location:  37.85°N, 99.76°W
Report Text: KDDC 212252Z AUTO 17015KT 9SM FEW017 06/02 A2962 RMK AO2 SLP033 T00610022
Loading
Personal Weather Stations






























Interactive Weather Map New forecast layout! Learn more

10-Day Weather Forecast

Advertisements
Track Severe Weather on mobile